createdAt,value
2022-09-06T00:02:03.048Z,101250.44
2022-09-06T00:12:06.042Z,101251.53
2022-09-06T00:22:09.041Z,101241.88
2022-09-06T00:32:36.256Z,101237.69
2022-09-06T00:42:39.089Z,101243.72
2022-09-06T00:52:43.277Z,101244.13
2022-09-06T01:02:46.193Z,101235.78
2022-09-06T01:12:58.854Z,101232.94
2022-09-06T01:23:26.201Z,101228.00
2022-09-06T01:33:38.644Z,101237.50
2022-09-06T01:43:46.122Z,101237.44
2022-09-06T01:54:19.342Z,101228.47
2022-09-06T02:04:27.633Z,101221.84
2022-09-06T02:15:07.247Z,101228.53
2022-09-06T02:25:13.449Z,101217.75
2022-09-06T02:35:16.921Z,101217.66
2022-09-06T02:45:21.034Z,101236.00
2022-09-06T02:55:24.075Z,101242.78
2022-09-06T03:05:27.916Z,101228.13
2022-09-06T03:15:31.096Z,101207.66
2022-09-06T03:25:34.150Z,101210.41
2022-09-06T03:35:40.088Z,101210.28
2022-09-06T03:45:48.551Z,101216.38
2022-09-06T03:55:54.315Z,101219.19
2022-09-06T04:05:57.068Z,101249.16
2022-09-06T04:15:59.698Z,101274.22
2022-09-06T04:26:03.621Z,101260.00
2022-09-06T04:36:09.894Z,101262.13
2022-09-06T04:46:18.294Z,101246.69
2022-09-06T04:56:23.766Z,101265.72
2022-09-06T05:06:26.914Z,101250.00
2022-09-06T05:16:30.120Z,101235.13
2022-09-06T05:26:33.097Z,101232.00
2022-09-06T05:36:36.139Z,101219.41
2022-09-06T05:46:45.373Z,101241.84
2022-09-06T05:56:48.097Z,101247.91
2022-09-06T06:06:51.135Z,101239.50
2022-09-06T06:16:54.193Z,101239.63
2022-09-06T06:26:57.080Z,101234.72
2022-09-06T06:37:00.160Z,101234.75
2022-09-06T06:47:02.933Z,101227.16
2022-09-06T06:57:05.983Z,101241.03
2022-09-06T07:17:32.103Z,101245.38
2022-09-06T07:27:50.490Z,101257.81
2022-09-06T07:37:58.207Z,101250.72
2022-09-06T07:48:01.170Z,101239.88
2022-09-06T07:58:04.067Z,101247.16
2022-09-06T08:18:30.184Z,101236.91
2022-09-06T08:28:33.168Z,101249.03
2022-09-06T08:38:36.171Z,101232.25
2022-09-06T08:48:40.117Z,101218.66
2022-09-06T08:59:04.170Z,101215.41
2022-09-06T09:09:09.072Z,101196.56
2022-09-06T09:19:12.177Z,101207.84
2022-09-06T09:29:15.973Z,101203.53
2022-09-06T09:39:19.578Z,101190.66
2022-09-06T09:49:22.089Z,101181.75
2022-09-06T09:59:34.420Z,101176.28
2022-09-06T10:09:40.057Z,101163.75
2022-09-06T10:19:45.958Z,101153.53
2022-09-06T10:29:58.638Z,101136.66
2022-09-06T10:40:10.450Z,101142.22
2022-09-06T10:50:16.126Z,101132.81
2022-09-06T11:00:19.167Z,101121.03
2022-09-06T11:10:30.704Z,101103.03
2022-09-06T11:20:39.703Z,101091.34
2022-09-06T11:30:52.736Z,101083.63
2022-09-06T11:41:12.159Z,101067.59
2022-09-06T11:51:36.115Z,101062.31
2022-09-06T12:02:42.951Z,101055.53
2022-09-06T12:12:52.750Z,101044.84
2022-09-06T12:22:55.297Z,101028.72
2022-09-06T12:32:59.087Z,101029.31
2022-09-06T12:43:04.437Z,101004.34
2022-09-06T12:53:24.762Z,100994.56
2022-09-06T13:03:38.183Z,100983.00
2022-09-06T13:13:49.354Z,100974.41
2022-09-06T13:23:54.227Z,100971.09
2022-09-06T13:33:59.312Z,100970.59
2022-09-06T13:44:04.810Z,100951.88
2022-09-06T13:54:13.157Z,100945.53
2022-09-06T14:04:21.621Z,100952.03
2022-09-06T14:14:25.192Z,100942.00
2022-09-06T14:24:33.620Z,100943.38
2022-09-06T14:34:36.161Z,100925.56
2022-09-06T14:45:33.831Z,100911.81
2022-09-06T15:07:20.503Z,100921.38
2022-09-06T15:17:40.424Z,100903.78
2022-09-06T15:27:44.357Z,100900.28
2022-09-06T15:37:53.756Z,100903.81
2022-09-06T15:48:16.395Z,100915.31
2022-09-06T15:58:19.053Z,100911.97
2022-09-06T16:08:22.096Z,100897.00
2022-09-06T16:18:26.261Z,100891.50
2022-09-06T16:28:31.000Z,100901.72
2022-09-06T16:38:39.015Z,100888.28
2022-09-06T16:48:41.801Z,100892.97
2022-09-06T16:58:50.647Z,100885.16
2022-09-06T17:09:04.369Z,100888.41
2022-09-06T17:19:09.426Z,100888.75
2022-09-06T17:29:15.029Z,100895.16
2022-09-06T17:39:24.299Z,100907.47
2022-09-06T17:49:28.966Z,100898.97
2022-09-06T17:59:35.833Z,100911.59
2022-09-06T18:09:42.220Z,100921.31
2022-09-06T18:19:45.558Z,100920.72
2022-09-06T18:29:48.549Z,100931.97
2022-09-06T18:39:53.892Z,100929.78
2022-09-06T18:49:56.802Z,100924.53
2022-09-06T18:59:59.936Z,100926.53
2022-09-06T19:10:03.607Z,100926.88
2022-09-06T19:20:11.476Z,100933.97
2022-09-06T19:30:15.394Z,100930.09
2022-09-06T19:40:18.877Z,100938.56
2022-09-06T19:50:27.507Z,100927.50
2022-09-06T20:00:35.689Z,100917.16
2022-09-06T20:10:39.368Z,100925.22
2022-09-06T20:20:42.171Z,100926.72
2022-09-06T20:30:45.401Z,100926.34
2022-09-06T20:41:02.246Z,100931.81
2022-09-06T20:51:13.658Z,100927.59
2022-09-06T21:01:23.005Z,100926.06
2022-09-06T21:11:35.134Z,100929.09
2022-09-06T21:21:38.549Z,100920.66
2022-09-06T21:31:41.212Z,100927.56
2022-09-06T21:41:45.414Z,100935.81
2022-09-06T21:51:49.668Z,100931.63
2022-09-06T22:01:53.216Z,100923.59
2022-09-06T22:11:56.179Z,100914.72
2022-09-06T22:22:01.751Z,100909.00
2022-09-06T22:32:04.454Z,100902.16
2022-09-06T22:42:07.183Z,100891.06
2022-09-06T22:52:10.270Z,100893.72
2022-09-06T23:02:12.745Z,100883.41
2022-09-06T23:12:15.265Z,100898.31
2022-09-06T23:22:28.199Z,100878.00
2022-09-06T23:32:33.385Z,100872.31
2022-09-06T23:42:35.891Z,100871.06
2022-09-06T23:52:41.406Z,100872.56
